Time;durP1;ratioP1;P1;durP2;ratioP2;P2;SDS_P1;SDS_P2;PMS_P1;PMS_P2;Temp;Humidity;BMP_temperature;BMP_pressure;BME280_temperature;BME280_humidity;BME280_pressure;Samples;Min_cycle;Max_cycle;Signal;HPM_P1;HPM_P2
2022/08/12 00:43:02;;;;;;;5.40;4.75;;;;;;;21.03;39.72;101306.88;682006;28;1216;-89
2022/08/12 00:43:25;;;;;;;5.20;4.70;;;;;;;20.99;39.39;101303.38;690884;28;1766;-90
2022/08/12 00:43:47;;;;;;;5.20;4.50;;;;;;;20.98;39.41;101308.69;685223;28;1164;-89
2022/08/12 00:44:09;;;;;;;6.40;4.85;;;;;;;20.98;39.43;101306.03;685878;28;1713;-89
2022/08/12 00:44:30;;;;;;;6.60;5.00;;;;;;;21.17;39.38;101312.09;685964;28;1664;-90
2022/08/12 00:44:52;;;;;;;5.97;5.00;;;;;;;21.21;39.40;101303.22;683311;28;1193;-90
2022/08/12 00:45:12;;;;;;;5.28;4.78;;;;;;;21.31;39.10;101318.16;693125;28;1196;-90
2022/08/12 00:46:29;;;;;;;5.13;4.47;;;;;;;21.30;39.15;101305.78;687801;28;1870;-89
2022/08/12 00:46:29;;;;;;;6.03;4.60;;;;;;;21.32;39.08;101311.97;685173;28;1319;-89
2022/08/12 00:47:00;;;;;;;6.25;4.63;;;;;;;21.33;39.14;101311.06;685948;28;1651;-89
2022/08/12 00:47:21;;;;;;;8.80;4.50;;;;;;;21.31;39.16;101304.00;687761;28;1408;-90
2022/08/12 00:47:43;;;;;;;8.50;4.50;;;;;;;21.34;39.06;101311.97;683878;28;1448;-89
2022/08/12 00:48:04;;;;;;;9.95;4.43;;;;;;;21.37;39.23;101312.81;687866;28;1829;-90
2022/08/12 00:48:25;;;;;;;7.38;4.25;;;;;;;21.35;39.11;101314.56;683924;28;1982;-89
2022/08/12 00:48:47;;;;;;;7.25;4.38;;;;;;;21.34;38.98;101307.50;686583;28;1384;-89
2022/08/12 00:49:09;;;;;;;5.72;4.50;;;;;;;21.36;39.09;101316.38;687619;28;1281;-90
2022/08/12 00:49:31;;;;;;;6.40;4.70;;;;;;;21.34;39.15;101317.25;683359;28;1406;-90
2022/08/12 00:49:54;;;;;;;5.93;4.60;;;;;;;21.33;39.04;101312.84;687322;28;1172;-89
2022/08/12 00:50:18;;;;;;;7.30;4.97;;;;;;;21.36;39.12;101321.69;688002;28;1369;-90
2022/08/12 00:50:41;;;;;;;7.32;4.90;;;;;;;21.30;39.12;101311.09;687205;28;1543;-90
2022/08/12 00:51:05;;;;;;;5.40;4.90;;;;;;;21.32;38.95;101311.97;685007;28;1197;-90
2022/08/12 00:52:04;;;;;;;4.90;4.50;;;;;;;21.27;38.99;101311.09;682319;28;1596;-90
2022/08/12 00:52:09;;;;;;;7.30;4.65;;;;;;;21.27;39.18;101316.41;679731;28;1662;-89
2022/08/12 00:52:33;;;;;;;7.55;4.68;;;;;;;21.12;39.39;101324.50;684580;28;1580;-89
2022/08/12 00:52:54;;;;;;;7.28;5.00;;;;;;;21.05;39.67;101321.00;687663;28;1212;-90
2022/08/12 00:53:15;;;;;;;5.40;4.90;;;;;;;20.94;39.80;101318.44;690162;28;1634;-90
2022/08/12 00:53:37;;;;;;;5.35;4.85;;;;;;;20.95;39.71;101309.56;689973;28;1750;-89
2022/08/12 00:53:58;;;;;;;5.97;4.70;;;;;;;20.92;39.82;101317.56;682808;28;1253;-90
2022/08/12 00:54:19;;;;;;;5.88;4.78;;;;;;;20.88;39.88;101316.72;687960;28;1432;-89
2022/08/12 00:54:52;;;;;;;6.68;5.00;;;;;;;20.89;39.78;101315.81;692642;28;1403;-89
2022/08/12 00:55:13;;;;;;;6.28;5.10;;;;;;;20.81;39.78;101318.53;688292;28;1540;-90
2022/08/12 00:55:41;;;;;;;6.00;5.20;;;;;;;20.84;39.83;101322.91;687422;28;1823;-90
2022/08/12 00:56:04;;;;;;;5.70;5.00;;;;;;;20.77;39.89;101311.47;690184;28;1656;-89
2022/08/12 00:56:27;;;;;;;5.40;4.80;;;;;;;20.83;39.92;101323.81;689308;28;1752;-89
2022/08/12 00:56:49;;;;;;;5.65;4.80;;;;;;;20.81;39.91;101320.28;684820;28;1244;-90
2022/08/12 00:57:16;;;;;;;6.00;5.00;;;;;;;20.86;40.06;101322.91;682540;28;1408;-89
2022/08/12 00:57:46;;;;;;;5.82;4.70;;;;;;;20.99;39.84;101324.59;687102;28;1809;-89
2022/08/12 00:58:07;;;;;;;9.32;4.95;;;;;;;21.05;39.46;101315.72;690324;28;1985;-90
2022/08/12 00:58:30;;;;;;;13.35;4.80;;;;;;;21.08;39.28;101313.91;691108;28;1584;-89
2022/08/12 00:58:53;;;;;;;12.38;4.80;;;;;;;21.14;39.23;101320.09;687817;28;1463;-90
2022/08/12 00:59:14;;;;;;;11.40;4.60;;;;;;;21.13;39.16;101318.31;683360;28;1945;-90
2022/08/12 00:59:42;;;;;;;7.20;4.85;;;;;;;21.08;39.45;101315.69;689789;28;1798;-89
2022/08/12 01:00:03;;;;;;;6.35;4.60;;;;;;;21.16;39.45;101320.94;690451;28;1096;-90
2022/08/12 01:00:27;;;;;;;6.30;4.80;;;;;;;21.05;39.46;101306.00;690253;28;1816;-89
2022/08/12 01:00:50;;;;;;;6.90;4.85;;;;;;;21.10;39.51;101324.53;690395;28;1522;-90
2022/08/12 01:01:13;;;;;;;7.30;5.40;;;;;;;21.09;39.54;101318.31;693144;28;1350;-90
2022/08/12 01:01:36;;;;;;;7.43;5.07;;;;;;;21.03;39.48;101310.41;688239;28;1563;-89
2022/08/12 01:02:00;;;;;;;6.68;4.72;;;;;;;21.02;39.64;101313.94;685204;28;1231;-89
2022/08/12 01:02:23;;;;;;;6.03;4.70;;;;;;;21.02;39.77;101313.94;690648;28;1707;-90
2022/08/12 01:02:50;;;;;;;7.93;4.75;;;;;;;21.07;39.95;101322.78;682874;28;1433;-89
2022/08/12 01:03:17;;;;;;;8.00;4.68;;;;;;;21.08;39.95;101313.91;687968;28;1402;-90
2022/08/12 01:11:31;;;;;;;11.50;4.90;;;;;;;21.03;40.24;101310.41;684841;28;1670;-89
2022/08/12 01:11:54;;;;;;;9.20;4.75;;;;;;;21.04;40.10;101312.19;688295;28;1832;-89
2022/08/12 01:12:16;;;;;;;5.82;4.75;;;;;;;21.01;40.18;101303.38;687666;28;1409;-89
2022/08/12 01:12:41;;;;;;;7.10;4.80;;;;;;;21.01;40.10;101309.53;684149;28;1630;-90
2022/08/12 01:13:03;;;;;;;7.18;4.65;;;;;;;21.07;40.25;101317.47;682145;28;1375;-90
2022/08/12 01:13:27;;;;;;;5.32;4.40;;;;;;;21.05;40.15;101316.59;684921;28;1705;-90
2022/08/12 01:13:49;;;;;;;5.10;4.60;;;;;;;21.03;40.09;101309.53;685195;28;1584;-90
2022/08/12 01:14:10;;;;;;;5.90;5.05;;;;;;;21.07;40.03;101321.88;683827;28;1582;-90
2022/08/12 01:14:32;;;;;;;6.38;5.50;;;;;;;21.04;39.90;101308.66;686919;28;1677;-90
2022/08/12 01:14:53;;;;;;;6.82;5.35;;;;;;;21.06;40.00;101312.16;687798;28;1334;-89
2022/08/12 01:15:16;;;;;;;5.53;4.93;;;;;;;21.02;40.02;101310.44;687612;28;1188;-89
2022/08/12 01:15:38;;;;;;;5.93;4.50;;;;;;;21.01;40.25;101309.53;687887;28;1964;-90
2022/08/12 01:16:02;;;;;;;6.00;4.60;;;;;;;21.08;39.98;101313.91;684928;28;1338;-89
2022/08/12 01:16:24;;;;;;;6.00;4.93;;;;;;;21.03;40.09;101315.72;687269;28;1917;-90
2022/08/12 01:16:47;;;;;;;5.30;4.80;;;;;;;21.03;40.16;101313.06;684613;28;1511;-89
2022/08/12 01:17:09;;;;;;;5.40;4.90;;;;;;;21.05;40.08;101311.31;686930;28;1597;-90
2022/08/12 01:17:30;;;;;;;5.30;4.80;;;;;;;21.03;40.16;101310.41;686830;28;1617;-89
2022/08/12 01:17:51;;;;;;;5.38;4.88;;;;;;;21.03;40.11;101313.06;682996;28;1256;-90
2022/08/12 01:18:13;;;;;;;5.40;4.90;;;;;;;21.04;40.13;101317.50;684553;28;1970;-90
2022/08/12 01:18:39;;;;;;;5.45;4.95;;;;;;;21.06;40.01;101318.38;689553;28;2030;-89
2022/08/12 01:19:03;;;;;;;5.22;4.72;;;;;;;21.06;40.04;101312.16;688714;28;1391;-90
2022/08/12 01:19:24;;;;;;;7.13;5.07;;;;;;;21.02;40.07;101316.59;681577;28;1683;-90
2022/08/12 01:19:47;;;;;;;7.45;5.10;;;;;;;21.02;39.99;101316.59;685563;28;1461;-90
2022/08/12 01:20:16;;;;;;;7.40;5.05;;;;;;;21.01;40.28;101322.81;688323;28;1669;-89
2022/08/12 01:20:51;;;;;;;6.47;4.80;;;;;;;20.98;40.08;101308.69;687131;28;1693;-89
2022/08/12 01:21:52;;;;;;;5.00;4.50;;;;;;;21.00;40.25;101326.34;684124;28;1619;-90
2022/08/12 01:22:33;;;;;;;5.40;4.80;;;;;;;20.97;40.12;101323.75;678271;29;1276;-90
2022/08/12 01:23:16;;;;;;;5.28;4.78;;;;;;;20.92;40.58;101328.19;684555;28;1333;-90
2022/08/12 01:24:04;;;;;;;5.50;5.00;;;;;;;20.80;40.72;101318.53;689595;28;2049;-89
2022/08/12 01:24:27;;;;;;;5.63;5.00;;;;;;;20.78;40.72;101321.19;683001;28;1272;-89
2022/08/12 01:25:11;;;;;;;5.40;4.90;;;;;;;20.76;40.94;101322.97;687175;28;1523;-89
2022/08/12 01:25:36;;;;;;;5.40;4.90;;;;;;;20.76;40.83;101325.63;689065;28;1676;-89
2022/08/12 01:26:02;;;;;;;5.50;5.00;;;;;;;20.72;40.87;101320.34;681451;29;1237;-89
2022/08/12 01:26:24;;;;;;;5.43;4.80;;;;;;;20.72;40.92;101326.50;695466;28;1670;-90
2022/08/12 01:26:46;;;;;;;6.45;4.70;;;;;;;20.69;40.87;101324.75;691973;28;1513;-90
2022/08/12 01:27:10;;;;;;;7.20;4.63;;;;;;;20.65;41.05;101311.53;688812;28;1275;-89
2022/08/12 01:27:33;;;;;;;6.70;4.80;;;;;;;20.64;41.08;101323.00;686784;28;1730;-89
2022/08/12 01:27:59;;;;;;;5.55;4.95;;;;;;;20.66;41.25;101329.19;689419;28;1188;-89
2022/08/12 01:28:23;;;;;;;5.65;5.10;;;;;;;20.64;41.24;101325.66;685158;28;1739;-89
2022/08/12 01:28:47;;;;;;;8.00;5.22;;;;;;;20.55;41.10;101306.25;687406;28;1407;-90
2022/08/12 01:29:14;;;;;;;7.50;5.00;;;;;;;20.61;41.38;101320.38;684972;28;1738;-90
2022/08/12 01:29:42;;;;;;;6.10;4.90;;;;;;;20.59;41.33;101317.72;683911;28;1691;-90
2022/08/12 01:30:09;;;;;;;6.13;4.90;;;;;;;20.59;41.34;101322.16;690252;28;1410;-90
2022/08/12 01:30:32;;;;;;;5.30;4.80;;;;;;;20.57;41.45;101316.00;693831;28;1679;-90
2022/08/12 01:30:56;;;;;;;5.75;5.10;;;;;;;20.60;41.60;101326.56;684574;28;1226;-89
2022/08/12 01:31:18;;;;;;;6.03;5.20;;;;;;;20.50;41.46;101308.06;682441;28;1380;-89
2022/08/12 01:31:44;;;;;;;5.38;4.88;;;;;;;20.57;41.58;101322.16;685992;28;1686;-90
2022/08/12 01:32:07;;;;;;;5.20;4.70;;;;;;;20.54;41.44;101319.53;689299;28;1600;-89
2022/08/12 01:32:35;;;;;;;5.38;4.88;;;;;;;20.50;41.52;101317.78;684745;28;1713;-90
2022/08/12 01:32:58;;;;;;;5.60;5.00;;;;;;;20.55;41.57;101316.84;684868;28;1196;-89
2022/08/12 01:33:21;;;;;;;5.30;4.80;;;;;;;20.53;41.71;101323.94;690422;28;1241;-89
2022/08/12 01:34:04;;;;;;;5.38;4.85;;;;;;;20.58;41.59;101320.41;684666;28;1957;-89
2022/08/12 01:34:37;;;;;;;6.15;5.10;;;;;;;20.53;41.69;101318.63;689063;28;1986;-89
2022/08/12 01:35:06;;;;;;;6.35;5.20;;;;;;;20.50;41.63;101312.47;687790;28;1211;-89
2022/08/12 01:35:31;;;;;;;6.18;4.82;;;;;;;20.53;41.68;101317.78;691466;28;1598;-90
2022/08/12 01:36:01;;;;;;;7.45;4.70;;;;;;;20.58;41.51;101325.69;685567;28;1484;-89
2022/08/12 01:36:26;;;;;;;9.23;4.80;;;;;;;20.52;41.58;101316.88;684694;28;2033;-89
2022/08/12 01:36:56;;;;;;;7.43;4.80;;;;;;;20.47;41.74;101308.06;687491;28;1519;-90
2022/08/12 01:37:21;;;;;;;5.50;4.90;;;;;;;20.48;41.58;101315.13;690578;28;1326;-89
2022/08/12 01:37:58;;;;;;;6.03;4.80;;;;;;;20.53;41.65;101329.25;686679;28;1781;-90
2022/08/12 01:38:21;;;;;;;5.80;5.00;;;;;;;20.46;41.70;101314.25;692317;28;1674;-90
2022/08/12 01:38:46;;;;;;;5.72;5.13;;;;;;;20.51;41.56;101317.78;683155;28;2571;-90
2022/08/12 01:39:08;;;;;;;6.57;5.20;;;;;;;20.51;41.56;101319.53;689722;28;2580;-90
2022/08/12 01:39:36;;;;;;;6.78;5.13;;;;;;;20.51;41.45;101319.53;688194;28;1712;-90
2022/08/12 01:39:59;;;;;;;7.60;5.35;;;;;;;20.47;41.58;101318.66;689878;28;1331;-90
2022/08/12 01:40:45;;;;;;;6.35;5.32;;;;;;;20.49;41.43;101322.22;691219;28;1208;-90
2022/08/12 01:41:10;;;;;;;5.63;5.03;;;;;;;20.51;41.41;101323.06;685072;28;1854;-90
2022/08/12 01:41:37;;;;;;;8.20;5.10;;;;;;;20.46;41.62;101308.94;690138;28;1589;-89
2022/08/12 01:42:06;;;;;;;7.65;5.10;;;;;;;20.47;41.49;101318.66;684852;28;1372;-89
2022/08/12 01:42:32;;;;;;;6.45;4.90;;;;;;;20.52;41.80;101324.84;686710;28;1681;-90
2022/08/12 01:42:57;;;;;;;5.90;5.00;;;;;;;20.50;41.59;101317.78;690165;28;1391;-89
2022/08/12 01:43:21;;;;;;;11.80;5.38;;;;;;;20.51;41.64;101316.88;686725;28;1197;-89
2022/08/12 01:43:43;;;;;;;12.30;5.10;;;;;;;20.53;41.60;101318.63;692656;28;1687;-89
2022/08/12 01:44:05;;;;;;;7.90;4.90;;;;;;;20.50;41.47;101312.47;689991;28;1605;-90
2022/08/12 01:44:29;;;;;;;6.40;4.80;;;;;;;20.46;41.53;101305.44;687465;28;1873;-90
2022/08/12 01:44:54;;;;;;;6.50;4.70;;;;;;;20.47;41.58;101318.66;692565;28;1446;-89
2022/08/12 01:45:21;;;;;;;5.55;4.68;;;;;;;20.47;41.73;101318.66;683620;28;1529;-89
2022/08/12 01:45:59;;;;;;;5.68;4.90;;;;;;;20.48;41.85;101320.41;684452;28;1594;-89
2022/08/12 01:47:02;;;;;;;5.35;4.85;;;;;;;20.35;41.99;101303.69;687788;28;1280;-89
2022/08/12 01:47:51;;;;;;;5.95;4.75;;;;;;;20.43;42.03;101322.22;682114;28;1863;-89
2022/08/12 01:48:28;;;;;;;5.57;4.75;;;;;;;20.42;42.21;101320.47;686692;28;1220;-89
2022/08/12 01:49:10;;;;;;;5.50;5.00;;;;;;;20.40;42.25;101316.94;683981;28;1444;-89
2022/08/12 01:49:44;;;;;;;6.28;5.10;;;;;;;20.38;42.19;101311.66;687022;28;2035;-89
2022/08/12 01:50:20;;;;;;;7.35;5.20;;;;;;;20.40;42.23;101316.94;688235;28;1810;-89
2022/08/12 01:50:56;;;;;;;8.88;5.40;;;;;;;20.41;42.29;101321.38;687203;28;1790;-89
2022/08/12 01:51:41;;;;;;;7.82;5.30;;;;;;;20.33;42.21;101315.19;688038;28;1310;-89
2022/08/12 01:52:05;;;;;;;7.30;4.90;;;;;;;20.39;42.26;101320.47;690119;28;1328;-89
2022/08/12 01:52:54;;;;;;;5.10;4.60;;;;;;;20.39;42.33;101317.81;687632;28;1768;-89
2022/08/12 01:53:19;;;;;;;7.20;5.20;;;;;;;20.36;42.14;101309.88;686498;28;1894;-89
2022/08/12 01:53:46;;;;;;;6.82;5.30;;;;;;;20.38;42.00;101316.94;684795;28;1755;-89
2022/08/12 01:54:24;;;;;;;6.43;5.60;;;;;;;20.36;42.12;101312.53;684846;28;1301;-90
2022/08/12 01:54:46;;;;;;;6.57;5.60;;;;;;;20.35;42.05;101311.66;687384;28;1662;-89
2022/08/12 01:55:10;;;;;;;6.80;5.45;;;;;;;20.33;42.09;101309.88;682281;29;1345;-89
2022/08/12 01:55:37;;;;;;;7.07;5.30;;;;;;;20.37;42.04;101316.94;689591;28;1685;-89
2022/08/12 01:55:59;;;;;;;6.28;5.20;;;;;;;20.37;41.93;101316.94;690334;28;1236;-89
2022/08/12 01:56:24;;;;;;;6.25;5.30;;;;;;;20.26;42.02;101315.22;688995;28;1625;-89
2022/08/12 01:56:58;;;;;;;7.72;5.30;;;;;;;20.12;42.47;101317.91;687453;28;1488;-89
2022/08/12 01:57:43;;;;;;;8.00;5.30;;;;;;;20.05;42.64;101315.31;682384;29;1224;-89
2022/08/12 01:59:57;;;;;;;7.43;5.10;;;;;;;20.14;42.46;101310.84;685654;28;1824;-89
2022/08/12 02:00:21;;;;;;;6.78;5.32;;;;;;;20.23;42.22;101309.94;682977;28;1680;-89
2022/08/12 02:01:05;;;;;;;5.80;5.20;;;;;;;20.25;42.45;101315.22;687219;28;1812;-89
2022/08/12 02:01:33;;;;;;;6.88;5.07;;;;;;;20.23;42.47;101309.94;688447;28;1757;-89
2022/08/12 02:01:58;;;;;;;8.77;5.05;;;;;;;20.25;42.55;101318.78;682402;29;1333;-89
2022/08/12 02:02:31;;;;;;;8.15;5.20;;;;;;;20.24;42.53;101311.69;689296;28;1700;-90
2022/08/12 02:03:08;;;;;;;7.93;5.38;;;;;;;20.26;42.58;101314.34;688905;28;1463;-89
2022/08/12 02:11:41;;;;;;;6.80;5.35;;;;;;;20.12;42.93;101322.34;692150;28;1355;-89
2022/08/12 02:12:19;;;;;;;8.32;5.57;;;;;;;20.09;42.90;101322.34;690702;28;1221;-89
2022/08/12 02:13:03;;;;;;;9.60;5.43;;;;;;;20.02;42.88;101313.53;684691;28;1704;-90
2022/08/12 02:13:46;;;;;;;10.30;5.35;;;;;;;20.09;43.04;101327.63;683334;28;1248;-89
2022/08/12 02:14:27;;;;;;;7.25;5.57;;;;;;;20.07;43.02;101322.38;687877;28;1325;-90
2022/08/12 02:15:01;;;;;;;6.20;5.60;;;;;;;20.05;42.85;101320.59;691320;28;1390;-89
2022/08/12 02:15:37;;;;;;;6.93;5.63;;;;;;;20.09;43.00;101330.28;685812;28;1200;-89
2022/08/12 02:16:12;;;;;;;8.73;5.70;;;;;;;20.06;42.96;101325.91;683283;29;1270;-89
2022/08/12 02:16:57;;;;;;;7.70;5.60;;;;;;;20.05;42.89;101321.50;686992;28;1646;-90
2022/08/12 02:17:45;;;;;;;6.28;5.68;;;;;;;20.07;42.78;101334.72;688116;28;1766;-89
2022/08/12 02:18:38;;;;;;;7.85;5.70;;;;;;;20.04;42.57;101330.28;685837;28;1883;-89
2022/08/12 02:19:36;;;;;;;9.80;5.93;;;;;;;20.05;42.46;101332.09;681375;29;1404;-89
2022/08/12 02:20:21;;;;;;;6.53;5.93;;;;;;;20.00;42.56;101331.22;682417;28;1395;-89
2022/08/12 02:20:52;;;;;;;7.13;6.30;;;;;;;20.02;42.55;101325.91;685055;28;1601;-89
2022/08/12 02:21:12;;;;;;;7.13;6.00;;;;;;;20.06;42.48;101335.59;685595;28;1500;-90
2022/08/12 02:22:05;;;;;;;6.70;5.80;;;;;;;20.06;42.48;101332.94;688181;28;1855;-89
2022/08/12 02:22:37;;;;;;;6.10;5.50;;;;;;;20.05;42.56;101332.09;687205;28;1849;-89
2022/08/12 02:22:59;;;;;;;10.20;5.80;;;;;;;19.99;42.45;101322.38;684018;28;1371;-89
2022/08/12 02:23:25;;;;;;;11.13;5.78;;;;;;;19.98;42.56;101325.91;690797;28;1141;-89
2022/08/12 02:23:48;;;;;;;11.30;6.20;;;;;;;19.92;42.52;101314.44;688248;28;1718;-89
2022/08/12 02:24:14;;;;;;;10.68;6.40;;;;;;;19.96;42.40;101324.13;694616;28;1220;-87
2022/08/12 02:24:37;;;;;;;8.07;5.72;;;;;;;19.98;42.51;101333.00;689215;28;1700;-89
2022/08/12 02:25:14;;;;;;;6.90;5.80;;;;;;;19.96;42.63;101332.97;683136;28;1304;-89
2022/08/12 02:25:40;;;;;;;11.38;6.22;;;;;;;19.89;42.54;101325.94;686647;28;1730;-90
2022/08/12 02:26:05;;;;;;;10.73;6.25;;;;;;;19.89;42.54;101327.69;685519;28;1333;-89
2022/08/12 02:26:31;;;;;;;6.95;6.25;;;;;;;19.90;42.48;101334.78;687778;28;2604;-89
2022/08/12 02:26:53;;;;;;;6.55;5.95;;;;;;;19.82;42.59;101316.19;696523;28;2775;-90
2022/08/12 02:28:01;;;;;;;6.45;5.85;;;;;;;19.86;42.63;101332.06;689826;28;2292;-89
2022/08/12 02:28:22;;;;;;;8.32;6.40;;;;;;;19.78;42.75;101319.75;685547;28;1313;-89
2022/08/12 02:28:44;;;;;;;10.30;6.38;;;;;;;19.78;42.87;101317.09;690516;28;1562;-89
2022/08/12 02:29:06;;;;;;;9.20;6.43;;;;;;;19.77;42.83;101317.97;688355;28;1203;-90
2022/08/12 02:29:28;;;;;;;8.30;6.20;;;;;;;19.76;42.88;101318.84;687983;28;2115;-89
2022/08/12 02:29:49;;;;;;;8.15;6.20;;;;;;;19.75;42.87;101322.38;684284;28;1564;-89
2022/08/12 02:30:15;;;;;;;8.48;6.32;;;;;;;19.74;43.01;101316.22;693864;28;1313;-89
2022/08/12 02:30:36;;;;;;;9.05;6.50;;;;;;;19.72;42.91;101317.97;686808;28;1750;-89
2022/08/12 02:31:03;;;;;;;7.72;6.10;;;;;;;19.73;43.12;101323.28;687805;28;1821;-89
2022/08/12 02:31:28;;;;;;;6.60;6.00;;;;;;;19.72;43.17;101328.56;688197;28;1293;-88
2022/08/12 02:31:51;;;;;;;7.10;5.75;;;;;;;19.71;43.21;101322.41;684558;28;1511;-89
2022/08/12 02:32:13;;;;;;;7.22;5.60;;;;;;;19.73;43.30;101331.22;685037;28;1706;-89
2022/08/12 02:32:41;;;;;;;6.78;5.80;;;;;;;19.69;43.07;101324.19;687565;28;1671;-89
2022/08/12 02:33:04;;;;;;;6.65;6.05;;;;;;;19.68;43.13;101317.09;684994;28;1134;-90
2022/08/12 02:33:26;;;;;;;6.85;6.15;;;;;;;19.68;43.04;101322.38;685431;28;1575;-89
2022/08/12 02:33:48;;;;;;;7.90;6.40;;;;;;;19.70;43.24;101320.66;685202;28;1568;-90
2022/08/12 02:34:11;;;;;;;8.20;6.40;;;;;;;19.74;42.90;101329.47;685682;28;1622;-89
2022/08/12 02:34:33;;;;;;;8.27;6.30;;;;;;;19.72;43.04;101323.28;681868;28;1651;-89
2022/08/12 02:34:56;;;;;;;7.20;5.97;;;;;;;19.72;42.74;101318.88;685276;28;1551;-89
2022/08/12 02:35:22;;;;;;;6.65;5.93;;;;;;;19.75;42.92;101331.22;687783;28;1646;-89
2022/08/12 02:35:43;;;;;;;6.57;5.85;;;;;;;19.73;42.80;101323.28;685378;28;1820;-89
2022/08/12 02:36:05;;;;;;;6.80;6.10;;;;;;;19.75;43.00;101325.03;688130;28;1238;-89
2022/08/12 02:36:27;;;;;;;6.80;6.13;;;;;;;19.73;43.23;101323.28;684894;28;1695;-89
2022/08/12 02:36:48;;;;;;;7.00;6.30;;;;;;;19.72;43.18;101324.16;687717;28;1456;-89
2022/08/12 02:37:14;;;;;;;7.53;6.07;;;;;;;19.76;43.10;101330.34;688015;28;1352;-89
2022/08/12 02:37:38;;;;;;;8.80;6.00;;;;;;;19.68;43.38;101317.09;679582;29;1841;-89
2022/08/12 02:38:05;;;;;;;7.95;5.80;;;;;;;19.71;43.33;101330.34;692424;28;1911;-89
2022/08/12 02:38:27;;;;;;;7.28;6.15;;;;;;;19.71;43.21;101322.41;692727;28;1614;-90
2022/08/12 02:38:49;;;;;;;7.07;6.38;;;;;;;19.72;43.19;101326.81;687951;28;1522;-89
2022/08/12 02:39:15;;;;;;;6.60;6.00;;;;;;;19.70;43.23;101330.34;687817;28;1361;-89
2022/08/12 02:39:39;;;;;;;6.90;6.20;;;;;;;19.70;43.27;101330.34;682332;28;1660;-89
2022/08/12 02:40:02;;;;;;;8.25;6.40;;;;;;;19.71;43.33;101333.00;690817;28;1349;-89
2022/08/12 02:40:26;;;;;;;7.75;6.38;;;;;;;19.67;43.46;101330.34;693628;28;1454;-89
2022/08/12 02:40:51;;;;;;;6.95;6.15;;;;;;;19.69;43.38;101329.47;685870;28;1415;-90
2022/08/12 02:41:18;;;;;;;7.28;5.95;;;;;;;19.68;43.34;101325.03;690230;28;1644;-89
2022/08/12 02:41:42;;;;;;;8.10;6.03;;;;;;;19.65;43.43;101324.16;688431;28;1667;-89
2022/08/12 02:42:05;;;;;;;9.73;6.00;;;;;;;19.64;43.41;101327.69;682395;28;1158;-89
2022/08/12 02:42:31;;;;;;;9.98;6.20;;;;;;;19.68;43.84;101329.47;687536;28;1694;-90
2022/08/12 02:43:13;;;;;;;9.38;6.30;;;;;;;19.64;43.51;101331.22;690810;28;1372;-89
2022/08/12 02:43:48;;;;;;;7.05;6.30;;;;;;;19.64;43.57;101336.53;685231;28;1676;-89
2022/08/12 02:44:14;;;;;;;8.00;5.90;;;;;;;19.60;43.79;101332.09;689528;28;1759;-89
2022/08/12 02:44:39;;;;;;;7.80;5.70;;;;;;;19.62;43.68;101338.31;684731;28;1575;-90
2022/08/12 02:45:08;;;;;;;8.93;5.57;;;;;;;19.64;43.73;101336.53;687798;28;1231;-90
2022/08/12 02:45:41;;;;;;;9.45;6.10;;;;;;;19.62;43.65;101337.41;687070;28;1746;-90
2022/08/12 02:46:10;;;;;;;7.07;6.10;;;;;;;19.58;43.71;101326.84;693172;28;1361;-89
2022/08/12 02:46:34;;;;;;;7.55;5.82;;;;;;;19.58;43.53;101332.13;691095;28;1618;-90
2022/08/12 02:47:00;;;;;;;9.60;6.03;;;;;;;19.57;43.60;101332.13;690156;28;1511;-89
2022/08/12 02:47:23;;;;;;;9.30;6.17;;;;;;;19.58;43.55;101336.53;692149;28;1784;-90
2022/08/12 02:47:48;;;;;;;8.13;5.90;;;;;;;19.51;43.69;101324.19;688075;28;1211;-89
2022/08/12 02:48:16;;;;;;;6.70;6.00;;;;;;;19.46;43.90;101318.88;687055;28;1218;-89
2022/08/12 02:48:43;;;;;;;8.38;5.88;;;;;;;19.52;43.86;101336.53;687687;28;1801;-90
2022/08/12 02:49:13;;;;;;;7.53;5.43;;;;;;;19.45;43.84;101328.59;687808;28;1340;-89
2022/08/12 02:49:40;;;;;;;7.32;5.85;;;;;;;19.45;43.92;101336.56;690375;28;2008;-89
2022/08/12 02:50:03;;;;;;;8.48;6.30;;;;;;;19.45;44.03;101340.94;685239;28;1320;-89
2022/08/12 02:50:30;;;;;;;8.55;6.40;;;;;;;19.29;44.23;101325.06;687681;28;1715;-90
2022/08/12 02:51:12;;;;;;;6.80;6.20;;;;;;;19.09;44.59;101334.72;689637;28;1687;-89
2022/08/12 02:51:40;;;;;;;7.35;5.90;;;;;;;18.99;44.81;101329.41;690903;28;1797;-89
2022/08/12 02:52:02;;;;;;;6.95;6.25;;;;;;;19.01;44.88;101340.84;690528;28;1348;-90
2022/08/12 02:52:26;;;;;;;7.00;6.30;;;;;;;18.97;44.97;101332.91;687406;28;1322;-89
2022/08/12 02:52:50;;;;;;;6.90;6.20;;;;;;;18.94;44.93;101328.53;686776;28;1623;-89
2022/08/12 02:53:12;;;;;;;8.02;6.13;;;;;;;18.94;44.96;101331.19;684558;28;1635;-89
2022/08/12 02:53:38;;;;;;;8.60;6.25;;;;;;;19.07;44.81;101337.41;687655;28;2031;-89
2022/08/12 02:54:02;;;;;;;7.57;6.22;;;;;;;19.19;44.71;101328.59;683080;28;1324;-89
2022/08/12 02:54:24;;;;;;;6.78;6.13;;;;;;;19.20;44.42;101324.16;682669;28;1364;-89
2022/08/12 02:54:52;;;;;;;7.45;5.90;;;;;;;19.17;44.65;101325.94;688370;28;2103;-89
2022/08/12 02:55:26;;;;;;;7.72;5.70;;;;;;;19.24;44.50;101337.41;687686;28;1678;-89
2022/08/12 02:55:50;;;;;;;6.68;5.70;;;;;;;19.20;44.49;101333.00;682904;28;1504;-89
2022/08/12 02:56:11;;;;;;;7.43;5.70;;;;;;;19.21;44.58;101337.41;687868;28;1788;-89
2022/08/12 02:56:40;;;;;;;7.10;5.78;;;;;;;19.14;44.67;101328.59;686921;28;1833;-89
2022/08/12 02:57:02;;;;;;;8.07;6.55;;;;;;;19.13;44.63;101334.75;685863;28;1421;-89
2022/08/12 02:57:23;;;;;;;9.10;6.78;;;;;;;19.15;44.76;101337.41;680429;29;1202;-89
2022/08/12 02:57:45;;;;;;;9.07;6.65;;;;;;;19.09;44.93;101332.97;685174;28;1799;-89
2022/08/12 02:58:08;;;;;;;9.40;6.38;;;;;;;19.05;44.85;101333.84;682721;28;1884;-90
2022/08/12 02:58:34;;;;;;;8.68;6.65;;;;;;;19.08;45.01;101333.88;687805;28;2671;-89
2022/08/12 02:59:26;;;;;;;9.77;6.80;;;;;;;19.11;45.03;101351.50;686888;28;2334;-89
2022/08/12 02:59:48;;;;;;;6.65;5.95;;;;;;;19.03;45.03;101330.31;686823;28;1630;-89
2022/08/12 03:00:12;;;;;;;6.72;5.85;;;;;;;19.03;45.12;101332.97;695540;28;2274;-89
2022/08/12 03:00:34;;;;;;;7.72;6.00;;;;;;;19.02;45.24;101331.19;689221;28;1598;-89
2022/08/12 03:01:00;;;;;;;7.53;5.80;;;;;;;19.03;45.23;101344.44;688069;28;1619;-89
2022/08/12 03:01:32;;;;;;;8.70;6.10;;;;;;;19.06;45.09;101338.28;691220;28;1279;-89
2022/08/12 03:02:04;;;;;;;8.32;6.05;;;;;;;19.05;45.39;101336.50;688611;28;1231;-89
2022/08/12 03:02:29;;;;;;;8.95;6.10;;;;;;;19.03;45.21;101332.97;686245;28;1192;-89
2022/08/12 03:02:51;;;;;;;8.20;6.40;;;;;;;19.06;45.45;101337.38;690967;28;1264;-88
2022/08/12 03:03:13;;;;;;;7.30;6.35;;;;;;;19.06;45.17;101333.00;691265;28;1241;-89
2022/08/12 03:03:35;;;;;;;8.30;6.30;;;;;;;19.08;45.39;101330.31;692446;28;1781;-89
2022/08/12 03:03:59;;;;;;;9.50;6.25;;;;;;;19.05;45.22;101325.91;691405;28;1280;-89
2022/08/12 03:04:29;;;;;;;8.10;6.20;;;;;;;19.06;45.40;101322.41;685979;28;1188;-89
2022/08/12 03:04:55;;;;;;;6.78;6.07;;;;;;;19.11;45.34;101331.22;691084;28;1643;-89
2022/08/12 03:05:20;;;;;;;7.40;6.10;;;;;;;19.16;45.32;101340.06;692319;28;1276;-89
2022/08/12 03:05:49;;;;;;;6.75;5.80;;;;;;;19.13;45.23;101329.44;688237;28;1843;-89
2022/08/12 03:06:22;;;;;;;6.55;5.55;;;;;;;19.13;44.95;101329.44;688627;28;1524;-88
2022/08/12 03:06:50;;;;;;;6.95;6.10;;;;;;;19.13;44.97;101328.59;684994;28;1758;-89
2022/08/12 03:07:35;;;;;;;7.30;6.60;;;;;;;19.19;44.91;101344.47;685943;28;1308;-89
2022/08/12 03:08:03;;;;;;;6.90;6.20;;;;;;;19.16;44.77;101337.41;681209;28;1207;-89
2022/08/12 03:08:29;;;;;;;6.97;6.28;;;;;;;19.13;44.72;101337.38;685942;28;1747;-88
2022/08/12 03:08:56;;;;;;;7.65;6.50;;;;;;;19.11;44.55;101325.06;691163;28;1839;-89
2022/08/12 03:09:18;;;;;;;9.70;6.50;;;;;;;19.16;44.44;101340.06;686010;28;1236;-89
2022/08/12 03:09:52;;;;;;;9.77;6.40;;;;;;;19.12;44.58;101332.97;687328;28;1714;-89
2022/08/12 03:10:13;;;;;;;9.25;6.50;;;;;;;19.17;44.57;101331.22;688322;28;1555;-89
2022/08/12 03:10:38;;;;;;;9.32;6.43;;;;;;;19.10;44.59;101329.47;686555;28;1916;-89
2022/08/12 03:11:09;;;;;;;7.25;6.20;;;;;;;19.14;44.62;101331.25;690479;28;1296;-89
2022/08/12 03:11:49;;;;;;;7.25;6.50;;;;;;;19.12;44.65;101330.34;689947;28;1689;-88
2022/08/12 03:12:13;;;;;;;7.85;6.40;;;;;;;19.03;44.62;101327.69;685700;28;1110;-89